sensor_id;sensor_type;location;lat;lon;timestamp;P1;durP1;ratioP1;P2;durP2;ratioP2
3647;SDS011;1840;48.892;15.312;2022-12-18T00:01:28;15.67;;;9.43;;
3647;SDS011;1840;48.892;15.312;2022-12-18T00:03:59;17.77;;;10.97;;
3647;SDS011;1840;48.892;15.312;2022-12-18T00:06:28;21.13;;;10.63;;
3647;SDS011;1840;48.892;15.312;2022-12-18T00:08:57;20.17;;;10.50;;
3647;SDS011;1840;48.892;15.312;2022-12-18T00:11:27;23.43;;;12.87;;
3647;SDS011;1840;48.892;15.312;2022-12-18T00:13:57;23.13;;;13.27;;
3647;SDS011;1840;48.892;15.312;2022-12-18T00:16:27;30.00;;;13.67;;
3647;SDS011;1840;48.892;15.312;2022-12-18T00:18:59;30.33;;;15.40;;
3647;SDS011;1840;48.892;15.312;2022-12-18T00:21:28;29.60;;;15.23;;
3647;SDS011;1840;48.892;15.312;2022-12-18T00:23:57;32.53;;;14.13;;
3647;SDS011;1840;48.892;15.312;2022-12-18T00:26:26;23.57;;;12.07;;
3647;SDS011;1840;48.892;15.312;2022-12-18T00:28:58;25.70;;;13.47;;
3647;SDS011;1840;48.892;15.312;2022-12-18T00:31:27;29.07;;;14.20;;
3647;SDS011;1840;48.892;15.312;2022-12-18T00:33:56;27.20;;;13.90;;
3647;SDS011;1840;48.892;15.312;2022-12-18T00:36:25;29.97;;;14.70;;
3647;SDS011;1840;48.892;15.312;2022-12-18T00:38:55;24.93;;;11.80;;
3647;SDS011;1840;48.892;15.312;2022-12-18T00:41:24;23.93;;;11.27;;
3647;SDS011;1840;48.892;15.312;2022-12-18T00:44:13;20.33;;;10.07;;
3647;SDS011;1840;48.892;15.312;2022-12-18T00:46:42;18.67;;;10.03;;
3647;SDS011;1840;48.892;15.312;2022-12-18T00:49:11;24.10;;;12.03;;
3647;SDS011;1840;48.892;15.312;2022-12-18T00:51:40;21.13;;;9.83;;
3647;SDS011;1840;48.892;15.312;2022-12-18T00:54:08;19.33;;;10.73;;
3647;SDS011;1840;48.892;15.312;2022-12-18T00:56:36;17.40;;;9.43;;
3647;SDS011;1840;48.892;15.312;2022-12-18T00:59:15;23.33;;;10.50;;
3647;SDS011;1840;48.892;15.312;2022-12-18T01:01:44;26.90;;;11.03;;
3647;SDS011;1840;48.892;15.312;2022-12-18T01:04:13;22.33;;;10.80;;
3647;SDS011;1840;48.892;15.312;2022-12-18T01:06:42;25.73;;;11.47;;
3647;SDS011;1840;48.892;15.312;2022-12-18T01:09:10;24.73;;;12.60;;
3647;SDS011;1840;48.892;15.312;2022-12-18T01:11:38;24.30;;;11.43;;
3647;SDS011;1840;48.892;15.312;2022-12-18T01:14:06;25.03;;;12.37;;
3647;SDS011;1840;48.892;15.312;2022-12-18T01:16:36;23.77;;;11.43;;
3647;SDS011;1840;48.892;15.312;2022-12-18T01:19:04;25.25;;;10.50;;
3647;SDS011;1840;48.892;15.312;2022-12-18T01:21:33;21.05;;;11.77;;
3647;SDS011;1840;48.892;15.312;2022-12-18T01:24:01;25.77;;;10.80;;
3647;SDS011;1840;48.892;15.312;2022-12-18T01:26:29;18.52;;;9.98;;
3647;SDS011;1840;48.892;15.312;2022-12-18T01:28:57;20.27;;;11.13;;
3647;SDS011;1840;48.892;15.312;2022-12-18T01:31:26;20.77;;;11.17;;
3647;SDS011;1840;48.892;15.312;2022-12-18T01:33:57;21.27;;;10.80;;
3647;SDS011;1840;48.892;15.312;2022-12-18T01:36:28;22.47;;;11.17;;
3647;SDS011;1840;48.892;15.312;2022-12-18T01:38:58;25.13;;;12.10;;
3647;SDS011;1840;48.892;15.312;2022-12-18T01:41:27;21.90;;;10.20;;
3647;SDS011;1840;48.892;15.312;2022-12-18T01:47:30;24.45;;;11.15;;
3647;SDS011;1840;48.892;15.312;2022-12-18T01:50:04;22.67;;;11.48;;
3647;SDS011;1840;48.892;15.312;2022-12-18T01:52:35;27.08;;;11.80;;
3647;SDS011;1840;48.892;15.312;2022-12-18T01:55:05;22.20;;;10.68;;
3647;SDS011;1840;48.892;15.312;2022-12-18T01:57:34;18.92;;;10.82;;
3647;SDS011;1840;48.892;15.312;2022-12-18T02:00:04;19.40;;;9.55;;
3647;SDS011;1840;48.892;15.312;2022-12-18T02:02:34;18.27;;;10.32;;
3647;SDS011;1840;48.892;15.312;2022-12-18T02:05:04;25.15;;;10.55;;
3647;SDS011;1840;48.892;15.312;2022-12-18T02:07:36;19.70;;;10.82;;
3647;SDS011;1840;48.892;15.312;2022-12-18T02:10:11;20.98;;;10.05;;
3647;SDS011;1840;48.892;15.312;2022-12-18T02:12:45;24.20;;;11.48;;
3647;SDS011;1840;48.892;15.312;2022-12-18T02:15:19;20.38;;;10.45;;
3647;SDS011;1840;48.892;15.312;2022-12-18T02:17:54;30.83;;;13.15;;
3647;SDS011;1840;48.892;15.312;2022-12-18T02:20:27;20.92;;;11.70;;
3647;SDS011;1840;48.892;15.312;2022-12-18T02:23:10;21.52;;;10.23;;
3647;SDS011;1840;48.892;15.312;2022-12-18T02:26:07;17.83;;;10.70;;
3647;SDS011;1840;48.892;15.312;2022-12-18T02:28:49;20.90;;;10.55;;
3647;SDS011;1840;48.892;15.312;2022-12-18T02:31:23;16.92;;;9.32;;
3647;SDS011;1840;48.892;15.312;2022-12-18T02:33:53;23.50;;;11.20;;
3647;SDS011;1840;48.892;15.312;2022-12-18T02:36:23;20.35;;;9.55;;
3647;SDS011;1840;48.892;15.312;2022-12-18T02:38:54;19.83;;;10.55;;
3647;SDS011;1840;48.892;15.312;2022-12-18T02:41:25;22.00;;;9.77;;
3647;SDS011;1840;48.892;15.312;2022-12-18T02:43:55;25.73;;;11.18;;
3647;SDS011;1840;48.892;15.312;2022-12-18T02:46:27;28.08;;;12.43;;
3647;SDS011;1840;48.892;15.312;2022-12-18T02:49:01;24.33;;;11.38;;
3647;SDS011;1840;48.892;15.312;2022-12-18T02:51:36;18.90;;;10.43;;
3647;SDS011;1840;48.892;15.312;2022-12-18T02:54:14;23.63;;;10.05;;
3647;SDS011;1840;48.892;15.312;2022-12-18T02:56:50;17.55;;;8.95;;
3647;SDS011;1840;48.892;15.312;2022-12-18T02:59:23;17.98;;;8.82;;
3647;SDS011;1840;48.892;15.312;2022-12-18T03:02:00;19.60;;;9.25;;
3647;SDS011;1840;48.892;15.312;2022-12-18T03:04:34;20.70;;;9.75;;
3647;SDS011;1840;48.892;15.312;2022-12-18T03:07:11;23.40;;;10.02;;
3647;SDS011;1840;48.892;15.312;2022-12-18T03:09:44;34.53;;;11.55;;
3647;SDS011;1840;48.892;15.312;2022-12-18T03:12:18;19.10;;;10.27;;
3647;SDS011;1840;48.892;15.312;2022-12-18T03:14:52;19.33;;;10.00;;
3647;SDS011;1840;48.892;15.312;2022-12-18T03:17:25;22.35;;;9.70;;
3647;SDS011;1840;48.892;15.312;2022-12-18T03:19:56;18.45;;;9.13;;
3647;SDS011;1840;48.892;15.312;2022-12-18T03:22:29;20.83;;;9.75;;
3647;SDS011;1840;48.892;15.312;2022-12-18T03:25:00;22.73;;;10.10;;
3647;SDS011;1840;48.892;15.312;2022-12-18T03:27:33;21.30;;;10.02;;
3647;SDS011;1840;48.892;15.312;2022-12-18T03:30:04;21.90;;;9.40;;
3647;SDS011;1840;48.892;15.312;2022-12-18T03:32:36;20.50;;;10.23;;
3647;SDS011;1840;48.892;15.312;2022-12-18T03:35:08;21.60;;;9.35;;
3647;SDS011;1840;48.892;15.312;2022-12-18T03:37:40;21.35;;;10.55;;
3647;SDS011;1840;48.892;15.312;2022-12-18T03:40:08;32.50;;;10.13;;
3647;SDS011;1840;48.892;15.312;2022-12-18T03:42:39;17.23;;;9.45;;
3647;SDS011;1840;48.892;15.312;2022-12-18T03:45:17;49.40;;;11.90;;
3647;SDS011;1840;48.892;15.312;2022-12-18T03:47:51;16.63;;;8.73;;
3647;SDS011;1840;48.892;15.312;2022-12-18T03:50:27;19.75;;;8.88;;
3647;SDS011;1840;48.892;15.312;2022-12-18T03:53:06;27.85;;;12.15;;
3647;SDS011;1840;48.892;15.312;2022-12-18T03:55:41;35.45;;;12.50;;
3647;SDS011;1840;48.892;15.312;2022-12-18T03:58:11;37.67;;;14.05;;
3647;SDS011;1840;48.892;15.312;2022-12-18T04:00:43;35.00;;;13.77;;
3647;SDS011;1840;48.892;15.312;2022-12-18T04:03:12;47.45;;;15.25;;
3647;SDS011;1840;48.892;15.312;2022-12-18T04:05:42;69.68;;;18.63;;
3647;SDS011;1840;48.892;15.312;2022-12-18T04:08:11;61.97;;;20.08;;
3647;SDS011;1840;48.892;15.312;2022-12-18T04:10:40;89.57;;;18.48;;
3647;SDS011;1840;48.892;15.312;2022-12-18T04:13:08;55.00;;;17.73;;
3647;SDS011;1840;48.892;15.312;2022-12-18T04:15:38;34.95;;;11.50;;
3647;SDS011;1840;48.892;15.312;2022-12-18T04:18:07;31.60;;;11.38;;
3647;SDS011;1840;48.892;15.312;2022-12-18T04:20:35;39.22;;;13.60;;
3647;SDS011;1840;48.892;15.312;2022-12-18T04:23:03;44.85;;;14.88;;
3647;SDS011;1840;48.892;15.312;2022-12-18T04:25:31;39.22;;;15.90;;
3647;SDS011;1840;48.892;15.312;2022-12-18T04:27:59;47.10;;;13.77;;
3647;SDS011;1840;48.892;15.312;2022-12-18T04:30:27;35.13;;;12.43;;
3647;SDS011;1840;48.892;15.312;2022-12-18T04:32:56;40.47;;;12.05;;
3647;SDS011;1840;48.892;15.312;2022-12-18T04:35:24;43.60;;;13.63;;
3647;SDS011;1840;48.892;15.312;2022-12-18T04:37:52;32.72;;;12.82;;
3647;SDS011;1840;48.892;15.312;2022-12-18T04:40:20;35.10;;;12.68;;
3647;SDS011;1840;48.892;15.312;2022-12-18T04:42:48;34.22;;;11.90;;
3647;SDS011;1840;48.892;15.312;2022-12-18T04:45:16;44.35;;;11.40;;
3647;SDS011;1840;48.892;15.312;2022-12-18T04:47:44;38.70;;;12.73;;
3647;SDS011;1840;48.892;15.312;2022-12-18T04:50:14;42.75;;;12.07;;
3647;SDS011;1840;48.892;15.312;2022-12-18T04:52:41;45.67;;;13.90;;
3647;SDS011;1840;48.892;15.312;2022-12-18T04:55:09;40.00;;;12.65;;
3647;SDS011;1840;48.892;15.312;2022-12-18T04:57:37;41.55;;;11.85;;
3647;SDS011;1840;48.892;15.312;2022-12-18T05:00:06;48.03;;;12.50;;
3647;SDS011;1840;48.892;15.312;2022-12-18T05:02:35;50.10;;;12.18;;
3647;SDS011;1840;48.892;15.312;2022-12-18T05:05:03;50.55;;;13.02;;
3647;SDS011;1840;48.892;15.312;2022-12-18T05:07:34;64.97;;;12.70;;
3647;SDS011;1840;48.892;15.312;2022-12-18T05:10:02;44.55;;;13.43;;
3647;SDS011;1840;48.892;15.312;2022-12-18T05:12:31;54.72;;;15.98;;
3647;SDS011;1840;48.892;15.312;2022-12-18T05:14:59;40.05;;;12.20;;
3647;SDS011;1840;48.892;15.312;2022-12-18T05:17:31;32.80;;;11.98;;
3647;SDS011;1840;48.892;15.312;2022-12-18T05:19:59;42.90;;;13.25;;
3647;SDS011;1840;48.892;15.312;2022-12-18T05:22:26;37.97;;;11.77;;
3647;SDS011;1840;48.892;15.312;2022-12-18T05:24:56;33.65;;;12.02;;
3647;SDS011;1840;48.892;15.312;2022-12-18T05:27:24;42.75;;;11.88;;
3647;SDS011;1840;48.892;15.312;2022-12-18T05:29:52;76.78;;;17.20;;
3647;SDS011;1840;48.892;15.312;2022-12-18T05:32:20;30.40;;;13.32;;
3647;SDS011;1840;48.892;15.312;2022-12-18T05:34:48;37.38;;;13.18;;
3647;SDS011;1840;48.892;15.312;2022-12-18T05:37:16;33.15;;;14.15;;
3647;SDS011;1840;48.892;15.312;2022-12-18T05:39:44;38.10;;;13.48;;
3647;SDS011;1840;48.892;15.312;2022-12-18T05:42:13;32.88;;;12.73;;
3647;SDS011;1840;48.892;15.312;2022-12-18T05:44:41;37.50;;;12.23;;
3647;SDS011;1840;48.892;15.312;2022-12-18T05:47:10;36.42;;;12.60;;
3647;SDS011;1840;48.892;15.312;2022-12-18T05:49:38;65.68;;;13.25;;
3647;SDS011;1840;48.892;15.312;2022-12-18T05:52:06;50.13;;;13.05;;
3647;SDS011;1840;48.892;15.312;2022-12-18T05:54:35;41.88;;;13.35;;
3647;SDS011;1840;48.892;15.312;2022-12-18T05:57:03;33.28;;;12.38;;
3647;SDS011;1840;48.892;15.312;2022-12-18T05:59:32;37.80;;;12.90;;
3647;SDS011;1840;48.892;15.312;2022-12-18T06:02:00;31.35;;;12.82;;
3647;SDS011;1840;48.892;15.312;2022-12-18T06:04:28;38.38;;;14.07;;
3647;SDS011;1840;48.892;15.312;2022-12-18T06:06:56;44.03;;;12.70;;
3647;SDS011;1840;48.892;15.312;2022-12-18T06:09:25;30.23;;;11.85;;
3647;SDS011;1840;48.892;15.312;2022-12-18T06:11:53;43.50;;;11.60;;
3647;SDS011;1840;48.892;15.312;2022-12-18T06:14:20;43.47;;;13.82;;
3647;SDS011;1840;48.892;15.312;2022-12-18T06:16:51;46.78;;;14.00;;
3647;SDS011;1840;48.892;15.312;2022-12-18T06:19:19;42.25;;;13.45;;
3647;SDS011;1840;48.892;15.312;2022-12-18T06:21:47;55.67;;;15.77;;
3647;SDS011;1840;48.892;15.312;2022-12-18T06:24:15;54.95;;;17.33;;
3647;SDS011;1840;48.892;15.312;2022-12-18T06:26:43;60.58;;;18.42;;
3647;SDS011;1840;48.892;15.312;2022-12-18T06:29:11;71.07;;;18.05;;
3647;SDS011;1840;48.892;15.312;2022-12-18T06:31:39;60.53;;;15.77;;
3647;SDS011;1840;48.892;15.312;2022-12-18T06:34:08;41.10;;;13.25;;
3647;SDS011;1840;48.892;15.312;2022-12-18T06:36:36;35.20;;;13.70;;
3647;SDS011;1840;48.892;15.312;2022-12-18T06:39:05;41.72;;;13.50;;
3647;SDS011;1840;48.892;15.312;2022-12-18T06:41:32;47.70;;;14.75;;
3647;SDS011;1840;48.892;15.312;2022-12-18T06:44:00;59.40;;;14.68;;
3647;SDS011;1840;48.892;15.312;2022-12-18T06:46:29;66.72;;;14.05;;
3647;SDS011;1840;48.892;15.312;2022-12-18T06:48:58;53.38;;;13.40;;
3647;SDS011;1840;48.892;15.312;2022-12-18T06:51:27;80.15;;;16.15;;
3647;SDS011;1840;48.892;15.312;2022-12-18T06:53:55;46.70;;;14.18;;
3647;SDS011;1840;48.892;15.312;2022-12-18T06:56:23;54.45;;;15.50;;
3647;SDS011;1840;48.892;15.312;2022-12-18T06:58:51;63.83;;;14.88;;
3647;SDS011;1840;48.892;15.312;2022-12-18T07:01:19;52.65;;;14.32;;
3647;SDS011;1840;48.892;15.312;2022-12-18T07:03:51;57.00;;;14.13;;
3647;SDS011;1840;48.892;15.312;2022-12-18T07:06:20;43.42;;;13.13;;
3647;SDS011;1840;48.892;15.312;2022-12-18T07:08:51;41.90;;;14.80;;
3647;SDS011;1840;48.892;15.312;2022-12-18T07:11:20;48.08;;;15.65;;
3647;SDS011;1840;48.892;15.312;2022-12-18T07:13:48;67.40;;;13.68;;
3647;SDS011;1840;48.892;15.312;2022-12-18T07:16:17;72.75;;;14.05;;
3647;SDS011;1840;48.892;15.312;2022-12-18T07:18:51;40.38;;;13.73;;
3647;SDS011;1840;48.892;15.312;2022-12-18T07:21:19;54.00;;;13.13;;
3647;SDS011;1840;48.892;15.312;2022-12-18T07:23:47;58.92;;;13.35;;
3647;SDS011;1840;48.892;15.312;2022-12-18T07:26:17;70.25;;;14.05;;
3647;SDS011;1840;48.892;15.312;2022-12-18T07:28:46;45.70;;;12.50;;
3647;SDS011;1840;48.892;15.312;2022-12-18T07:31:15;31.85;;;11.75;;
3647;SDS011;1840;48.892;15.312;2022-12-18T07:33:47;102.70;;;12.82;;
3647;SDS011;1840;48.892;15.312;2022-12-18T07:36:15;23.17;;;9.90;;
3647;SDS011;1840;48.892;15.312;2022-12-18T07:38:46;27.70;;;11.00;;
3647;SDS011;1840;48.892;15.312;2022-12-18T07:41:14;55.40;;;14.32;;
3647;SDS011;1840;48.892;15.312;2022-12-18T07:43:44;36.63;;;12.52;;
3647;SDS011;1840;48.892;15.312;2022-12-18T07:46:13;42.35;;;11.73;;
3647;SDS011;1840;48.892;15.312;2022-12-18T07:48:42;92.20;;;16.13;;
3647;SDS011;1840;48.892;15.312;2022-12-18T07:51:15;52.95;;;13.73;;
3647;SDS011;1840;48.892;15.312;2022-12-18T07:53:43;35.38;;;12.75;;
3647;SDS011;1840;48.892;15.312;2022-12-18T07:56:18;39.58;;;14.30;;
3647;SDS011;1840;48.892;15.312;2022-12-18T07:58:56;84.95;;;15.38;;
3647;SDS011;1840;48.892;15.312;2022-12-18T08:01:25;53.35;;;16.30;;
3647;SDS011;1840;48.892;15.312;2022-12-18T08:03:54;68.95;;;17.85;;
3647;SDS011;1840;48.892;15.312;2022-12-18T08:06:22;52.97;;;18.48;;
3647;SDS011;1840;48.892;15.312;2022-12-18T08:08:50;45.38;;;16.92;;
3647;SDS011;1840;48.892;15.312;2022-12-18T08:11:21;59.22;;;19.15;;
3647;SDS011;1840;48.892;15.312;2022-12-18T08:13:49;69.32;;;17.80;;
3647;SDS011;1840;48.892;15.312;2022-12-18T08:16:18;67.20;;;19.00;;
3647;SDS011;1840;48.892;15.312;2022-12-18T08:18:46;51.95;;;17.95;;
3647;SDS011;1840;48.892;15.312;2022-12-18T08:21:16;80.85;;;19.58;;
3647;SDS011;1840;48.892;15.312;2022-12-18T08:23:47;56.20;;;17.83;;
3647;SDS011;1840;48.892;15.312;2022-12-18T08:26:17;45.22;;;16.25;;
3647;SDS011;1840;48.892;15.312;2022-12-18T08:28:47;71.80;;;19.05;;
3647;SDS011;1840;48.892;15.312;2022-12-18T08:31:16;63.10;;;18.52;;
3647;SDS011;1840;48.892;15.312;2022-12-18T08:33:47;52.58;;;18.23;;
3647;SDS011;1840;48.892;15.312;2022-12-18T08:36:16;58.80;;;16.45;;
3647;SDS011;1840;48.892;15.312;2022-12-18T08:38:45;53.92;;;16.25;;
3647;SDS011;1840;48.892;15.312;2022-12-18T08:41:14;48.92;;;18.10;;
3647;SDS011;1840;48.892;15.312;2022-12-18T08:43:43;98.05;;;32.08;;
3647;SDS011;1840;48.892;15.312;2022-12-18T08:46:32;59.25;;;19.42;;
3647;SDS011;1840;48.892;15.312;2022-12-18T08:49:03;38.58;;;16.42;;
3647;SDS011;1840;48.892;15.312;2022-12-18T08:51:31;76.13;;;22.02;;
3647;SDS011;1840;48.892;15.312;2022-12-18T08:53:59;54.47;;;18.27;;
3647;SDS011;1840;48.892;15.312;2022-12-18T08:56:28;60.22;;;20.20;;
3647;SDS011;1840;48.892;15.312;2022-12-18T08:58:57;54.22;;;20.88;;
3647;SDS011;1840;48.892;15.312;2022-12-18T09:01:25;56.72;;;20.65;;
3647;SDS011;1840;48.892;15.312;2022-12-18T09:03:54;66.30;;;22.15;;
3647;SDS011;1840;48.892;15.312;2022-12-18T09:06:23;68.32;;;22.80;;
3647;SDS011;1840;48.892;15.312;2022-12-18T09:08:52;52.72;;;18.38;;
3647;SDS011;1840;48.892;15.312;2022-12-18T09:11:21;49.55;;;17.80;;
3647;SDS011;1840;48.892;15.312;2022-12-18T09:13:50;50.03;;;19.70;;
3647;SDS011;1840;48.892;15.312;2022-12-18T09:16:18;53.88;;;19.58;;
3647;SDS011;1840;48.892;15.312;2022-12-18T09:18:50;51.33;;;20.30;;
3647;SDS011;1840;48.892;15.312;2022-12-18T09:21:21;52.63;;;19.95;;
3647;SDS011;1840;48.892;15.312;2022-12-18T09:23:49;59.10;;;20.00;;
3647;SDS011;1840;48.892;15.312;2022-12-18T09:26:17;54.93;;;20.50;;
3647;SDS011;1840;48.892;15.312;2022-12-18T09:28:46;56.20;;;18.67;;
3647;SDS011;1840;48.892;15.312;2022-12-18T09:31:14;59.90;;;19.80;;
3647;SDS011;1840;48.892;15.312;2022-12-18T09:33:42;47.43;;;18.77;;
3647;SDS011;1840;48.892;15.312;2022-12-18T09:36:11;83.27;;;22.00;;
3647;SDS011;1840;48.892;15.312;2022-12-18T09:38:43;69.83;;;20.80;;
3647;SDS011;1840;48.892;15.312;2022-12-18T09:41:15;65.63;;;21.20;;
3647;SDS011;1840;48.892;15.312;2022-12-18T09:43:58;53.00;;;21.43;;
3647;SDS011;1840;48.892;15.312;2022-12-18T09:46:30;68.80;;;24.33;;
3647;SDS011;1840;48.892;15.312;2022-12-18T09:49:02;63.73;;;20.87;;
3647;SDS011;1840;48.892;15.312;2022-12-18T09:51:34;63.93;;;19.47;;
3647;SDS011;1840;48.892;15.312;2022-12-18T09:54:11;66.23;;;21.20;;
3647;SDS011;1840;48.892;15.312;2022-12-18T09:56:44;66.73;;;18.50;;
3647;SDS011;1840;48.892;15.312;2022-12-18T09:59:15;63.57;;;21.90;;
3647;SDS011;1840;48.892;15.312;2022-12-18T10:01:49;68.57;;;22.73;;
3647;SDS011;1840;48.892;15.312;2022-12-18T10:04:17;76.90;;;22.10;;
3647;SDS011;1840;48.892;15.312;2022-12-18T10:06:47;70.30;;;20.67;;
3647;SDS011;1840;48.892;15.312;2022-12-18T10:09:23;65.07;;;19.20;;
3647;SDS011;1840;48.892;15.312;2022-12-18T10:11:58;71.00;;;21.73;;
3647;SDS011;1840;48.892;15.312;2022-12-18T10:14:36;84.67;;;24.80;;
3647;SDS011;1840;48.892;15.312;2022-12-18T10:17:12;71.30;;;23.27;;
3647;SDS011;1840;48.892;15.312;2022-12-18T10:19:50;62.63;;;20.53;;
3647;SDS011;1840;48.892;15.312;2022-12-18T10:22:25;58.53;;;20.60;;
3647;SDS011;1840;48.892;15.312;2022-12-18T10:25:05;73.40;;;24.10;;
3647;SDS011;1840;48.892;15.312;2022-12-18T10:27:42;67.70;;;21.80;;
3647;SDS011;1840;48.892;15.312;2022-12-18T10:30:12;76.17;;;28.40;;
3647;SDS011;1840;48.892;15.312;2022-12-18T10:32:42;71.77;;;28.27;;
3647;SDS011;1840;48.892;15.312;2022-12-18T10:35:11;58.17;;;21.70;;
3647;SDS011;1840;48.892;15.312;2022-12-18T10:38:04;74.53;;;28.10;;
3647;SDS011;1840;48.892;15.312;2022-12-18T10:40:48;71.90;;;23.37;;
3647;SDS011;1840;48.892;15.312;2022-12-18T10:43:19;65.67;;;24.13;;
3647;SDS011;1840;48.892;15.312;2022-12-18T10:45:57;58.43;;;21.27;;
3647;SDS011;1840;48.892;15.312;2022-12-18T10:48:28;62.80;;;23.97;;
3647;SDS011;1840;48.892;15.312;2022-12-18T10:50:57;87.30;;;34.93;;
3647;SDS011;1840;48.892;15.312;2022-12-18T10:53:41;60.67;;;26.17;;
3647;SDS011;1840;48.892;15.312;2022-12-18T10:56:11;65.57;;;23.00;;
3647;SDS011;1840;48.892;15.312;2022-12-18T10:58:39;64.73;;;23.43;;
3647;SDS011;1840;48.892;15.312;2022-12-18T11:01:09;52.70;;;22.50;;
3647;SDS011;1840;48.892;15.312;2022-12-18T11:03:39;53.90;;;22.93;;
3647;SDS011;1840;48.892;15.312;2022-12-18T11:06:09;51.77;;;19.77;;
3647;SDS011;1840;48.892;15.312;2022-12-18T11:08:38;47.97;;;20.60;;
3647;SDS011;1840;48.892;15.312;2022-12-18T11:11:09;56.23;;;22.67;;
3647;SDS011;1840;48.892;15.312;2022-12-18T11:13:49;53.23;;;21.70;;
3647;SDS011;1840;48.892;15.312;2022-12-18T11:16:26;62.43;;;23.73;;
3647;SDS011;1840;48.892;15.312;2022-12-18T11:18:54;66.37;;;22.90;;
3647;SDS011;1840;48.892;15.312;2022-12-18T11:21:38;67.33;;;26.50;;
3647;SDS011;1840;48.892;15.312;2022-12-18T11:24:13;58.10;;;23.80;;
3647;SDS011;1840;48.892;15.312;2022-12-18T11:26:48;61.93;;;24.80;;
3647;SDS011;1840;48.892;15.312;2022-12-18T11:29:27;59.93;;;24.83;;
3647;SDS011;1840;48.892;15.312;2022-12-18T11:32:20;63.20;;;22.40;;
3647;SDS011;1840;48.892;15.312;2022-12-18T11:35:10;64.70;;;26.57;;
3647;SDS011;1840;48.892;15.312;2022-12-18T11:37:46;65.90;;;25.73;;
3647;SDS011;1840;48.892;15.312;2022-12-18T11:40:18;52.67;;;20.60;;
3647;SDS011;1840;48.892;15.312;2022-12-18T11:42:56;45.57;;;18.83;;
3647;SDS011;1840;48.892;15.312;2022-12-18T11:45:30;49.43;;;20.50;;
3647;SDS011;1840;48.892;15.312;2022-12-18T11:48:03;48.17;;;21.60;;
3647;SDS011;1840;48.892;15.312;2022-12-18T11:50:44;55.90;;;23.30;;
3647;SDS011;1840;48.892;15.312;2022-12-18T11:53:18;52.80;;;22.33;;
3647;SDS011;1840;48.892;15.312;2022-12-18T11:55:53;54.77;;;19.47;;
3647;SDS011;1840;48.892;15.312;2022-12-18T11:58:37;49.70;;;19.90;;
3647;SDS011;1840;48.892;15.312;2022-12-18T12:01:18;47.50;;;22.07;;
3647;SDS011;1840;48.892;15.312;2022-12-18T12:04:00;61.37;;;21.47;;
3647;SDS011;1840;48.892;15.312;2022-12-18T12:06:40;53.33;;;21.50;;
3647;SDS011;1840;48.892;15.312;2022-12-18T12:09:18;48.97;;;20.77;;
3647;SDS011;1840;48.892;15.312;2022-12-18T12:11:58;40.07;;;17.20;;
3647;SDS011;1840;48.892;15.312;2022-12-18T12:14:41;48.30;;;19.13;;
3647;SDS011;1840;48.892;15.312;2022-12-18T12:17:17;45.87;;;21.47;;
3647;SDS011;1840;48.892;15.312;2022-12-18T12:19:54;48.67;;;19.03;;
3647;SDS011;1840;48.892;15.312;2022-12-18T12:22:32;51.60;;;21.60;;
3647;SDS011;1840;48.892;15.312;2022-12-18T12:25:13;48.10;;;20.30;;
3647;SDS011;1840;48.892;15.312;2022-12-18T12:27:55;50.03;;;21.83;;
3647;SDS011;1840;48.892;15.312;2022-12-18T12:30:38;47.80;;;20.83;;
3647;SDS011;1840;48.892;15.312;2022-12-18T12:33:21;53.80;;;22.60;;
3647;SDS011;1840;48.892;15.312;2022-12-18T12:35:58;46.77;;;19.10;;
3647;SDS011;1840;48.892;15.312;2022-12-18T12:38:34;50.00;;;21.47;;
3647;SDS011;1840;48.892;15.312;2022-12-18T12:41:17;57.07;;;26.37;;
3647;SDS011;1840;48.892;15.312;2022-12-18T12:44:05;45.03;;;19.90;;
3647;SDS011;1840;48.892;15.312;2022-12-18T12:46:38;47.23;;;20.07;;
3647;SDS011;1840;48.892;15.312;2022-12-18T12:49:10;44.07;;;17.80;;
3647;SDS011;1840;48.892;15.312;2022-12-18T12:51:43;63.73;;;22.23;;
3647;SDS011;1840;48.892;15.312;2022-12-18T12:54:15;49.67;;;20.73;;
3647;SDS011;1840;48.892;15.312;2022-12-18T12:56:46;52.37;;;21.27;;
3647;SDS011;1840;48.892;15.312;2022-12-18T12:59:19;49.23;;;19.43;;
3647;SDS011;1840;48.892;15.312;2022-12-18T13:01:57;49.03;;;20.40;;
3647;SDS011;1840;48.892;15.312;2022-12-18T13:04:31;55.40;;;21.57;;
3647;SDS011;1840;48.892;15.312;2022-12-18T13:07:05;64.10;;;21.07;;
3647;SDS011;1840;48.892;15.312;2022-12-18T13:12:51;49.30;;;20.53;;
3647;SDS011;1840;48.892;15.312;2022-12-18T13:15:36;42.07;;;19.47;;
3647;SDS011;1840;48.892;15.312;2022-12-18T13:18:12;51.20;;;20.63;;
3647;SDS011;1840;48.892;15.312;2022-12-18T13:20:47;48.27;;;20.43;;
3647;SDS011;1840;48.892;15.312;2022-12-18T13:23:31;44.07;;;18.23;;
3647;SDS011;1840;48.892;15.312;2022-12-18T13:28:57;49.67;;;20.27;;
3647;SDS011;1840;48.892;15.312;2022-12-18T13:34:42;46.30;;;18.00;;
3647;SDS011;1840;48.892;15.312;2022-12-18T13:43:29;48.70;;;19.90;;
3647;SDS011;1840;48.892;15.312;2022-12-18T13:48:51;44.10;;;16.63;;
3647;SDS011;1840;48.892;15.312;2022-12-18T13:51:26;46.20;;;20.43;;
3647;SDS011;1840;48.892;15.312;2022-12-18T13:53:57;52.67;;;21.20;;
3647;SDS011;1840;48.892;15.312;2022-12-18T13:56:28;50.07;;;21.23;;
3647;SDS011;1840;48.892;15.312;2022-12-18T13:59:15;60.30;;;24.07;;
3647;SDS011;1840;48.892;15.312;2022-12-18T14:01:51;62.17;;;27.07;;
3647;SDS011;1840;48.892;15.312;2022-12-18T14:04:23;51.83;;;22.40;;
3647;SDS011;1840;48.892;15.312;2022-12-18T14:06:56;37.60;;;15.13;;
3647;SDS011;1840;48.892;15.312;2022-12-18T14:09:29;50.27;;;20.10;;
3647;SDS011;1840;48.892;15.312;2022-12-18T14:12:02;57.47;;;21.00;;
3647;SDS011;1840;48.892;15.312;2022-12-18T14:14:51;43.13;;;16.63;;
3647;SDS011;1840;48.892;15.312;2022-12-18T14:17:21;45.03;;;20.07;;
3647;SDS011;1840;48.892;15.312;2022-12-18T14:19:51;49.97;;;20.33;;
3647;SDS011;1840;48.892;15.312;2022-12-18T14:22:21;57.30;;;25.93;;
3647;SDS011;1840;48.892;15.312;2022-12-18T14:25:06;56.97;;;23.70;;
3647;SDS011;1840;48.892;15.312;2022-12-18T14:27:42;59.33;;;22.77;;
3647;SDS011;1840;48.892;15.312;2022-12-18T14:30:23;55.30;;;22.43;;
3647;SDS011;1840;48.892;15.312;2022-12-18T14:32:59;56.73;;;21.10;;
3647;SDS011;1840;48.892;15.312;2022-12-18T14:35:28;44.40;;;17.83;;
3647;SDS011;1840;48.892;15.312;2022-12-18T14:38:10;74.67;;;29.23;;
3647;SDS011;1840;48.892;15.312;2022-12-18T14:40:46;89.23;;;37.17;;
3647;SDS011;1840;48.892;15.312;2022-12-18T14:43:15;73.70;;;31.23;;
3647;SDS011;1840;48.892;15.312;2022-12-18T14:45:43;68.13;;;31.20;;
3647;SDS011;1840;48.892;15.312;2022-12-18T14:48:14;51.70;;;22.77;;
3647;SDS011;1840;48.892;15.312;2022-12-18T14:50:56;44.80;;;18.20;;
3647;SDS011;1840;48.892;15.312;2022-12-18T14:53:32;50.47;;;19.60;;
3647;SDS011;1840;48.892;15.312;2022-12-18T14:56:02;46.10;;;18.50;;
3647;SDS011;1840;48.892;15.312;2022-12-18T14:58:31;43.17;;;18.00;;
3647;SDS011;1840;48.892;15.312;2022-12-18T15:00:59;45.70;;;19.17;;
3647;SDS011;1840;48.892;15.312;2022-12-18T15:03:27;48.23;;;21.20;;
3647;SDS011;1840;48.892;15.312;2022-12-18T15:05:55;49.67;;;20.17;;
3647;SDS011;1840;48.892;15.312;2022-12-18T15:08:43;43.13;;;21.10;;
3647;SDS011;1840;48.892;15.312;2022-12-18T15:11:27;51.47;;;21.67;;
3647;SDS011;1840;48.892;15.312;2022-12-18T15:14:00;40.63;;;18.63;;
3647;SDS011;1840;48.892;15.312;2022-12-18T15:16:50;56.10;;;23.33;;
3647;SDS011;1840;48.892;15.312;2022-12-18T15:19:20;49.80;;;20.70;;
3647;SDS011;1840;48.892;15.312;2022-12-18T15:21:49;46.57;;;21.10;;
3647;SDS011;1840;48.892;15.312;2022-12-18T15:24:19;48.23;;;20.43;;
3647;SDS011;1840;48.892;15.312;2022-12-18T15:26:51;47.40;;;21.27;;